sensor_id;sensor_type;location;lat;lon;timestamp;P1;durP1;ratioP1;P2;durP2;ratioP2
65035;SDS011;51603;49.300;8.880;2022-08-19T00:00:05;17.23;;;15.80;;
65035;SDS011;51603;49.300;8.880;2022-08-19T00:02:33;17.90;;;16.50;;
65035;SDS011;51603;49.300;8.880;2022-08-19T00:04:59;18.77;;;17.27;;
65035;SDS011;51603;49.300;8.880;2022-08-19T00:07:24;20.00;;;18.40;;
65035;SDS011;51603;49.300;8.880;2022-08-19T00:09:50;18.10;;;16.50;;
65035;SDS011;51603;49.300;8.880;2022-08-19T00:12:15;19.73;;;18.07;;
65035;SDS011;51603;49.300;8.880;2022-08-19T00:14:41;19.27;;;17.67;;
65035;SDS011;51603;49.300;8.880;2022-08-19T00:17:07;19.07;;;17.57;;
65035;SDS011;51603;49.300;8.880;2022-08-19T00:19:33;19.80;;;18.07;;
65035;SDS011;51603;49.300;8.880;2022-08-19T00:22:00;18.70;;;17.07;;
65035;SDS011;51603;49.300;8.880;2022-08-19T00:24:27;19.00;;;17.40;;
65035;SDS011;51603;49.300;8.880;2022-08-19T00:26:53;19.10;;;17.50;;
65035;SDS011;51603;49.300;8.880;2022-08-19T00:29:20;17.90;;;15.80;;
65035;SDS011;51603;49.300;8.880;2022-08-19T00:31:46;18.00;;;16.40;;
65035;SDS011;51603;49.300;8.880;2022-08-19T00:34:12;17.60;;;16.10;;
65035;SDS011;51603;49.300;8.880;2022-08-19T00:36:39;18.43;;;16.90;;
65035;SDS011;51603;49.300;8.880;2022-08-19T00:39:06;19.63;;;17.63;;
65035;SDS011;51603;49.300;8.880;2022-08-19T00:41:32;18.13;;;16.73;;
65035;SDS011;51603;49.300;8.880;2022-08-19T00:44:05;19.47;;;17.50;;
65035;SDS011;51603;49.300;8.880;2022-08-19T00:46:34;20.57;;;18.80;;
65035;SDS011;51603;49.300;8.880;2022-08-19T00:49:06;19.73;;;17.80;;
65035;SDS011;51603;49.300;8.880;2022-08-19T00:51:46;18.80;;;17.20;;
65035;SDS011;51603;49.300;8.880;2022-08-19T00:54:15;19.30;;;17.70;;
65035;SDS011;51603;49.300;8.880;2022-08-19T00:56:41;21.37;;;19.57;;
65035;SDS011;51603;49.300;8.880;2022-08-19T00:59:08;20.03;;;18.03;;
65035;SDS011;51603;49.300;8.880;2022-08-19T01:01:35;21.67;;;19.87;;
65035;SDS011;51603;49.300;8.880;2022-08-19T01:04:02;22.40;;;20.50;;
65035;SDS011;51603;49.300;8.880;2022-08-19T01:06:27;21.07;;;19.10;;
65035;SDS011;51603;49.300;8.880;2022-08-19T01:08:57;20.80;;;19.00;;
65035;SDS011;51603;49.300;8.880;2022-08-19T01:11:23;21.00;;;19.10;;
65035;SDS011;51603;49.300;8.880;2022-08-19T01:13:48;24.03;;;21.93;;
65035;SDS011;51603;49.300;8.880;2022-08-19T01:16:16;22.43;;;20.37;;
65035;SDS011;51603;49.300;8.880;2022-08-19T01:18:44;21.60;;;19.60;;
65035;SDS011;51603;49.300;8.880;2022-08-19T01:24:08;24.20;;;21.63;;
65035;SDS011;51603;49.300;8.880;2022-08-19T01:26:38;23.67;;;21.57;;
65035;SDS011;51603;49.300;8.880;2022-08-19T01:29:09;22.20;;;20.30;;
65035;SDS011;51603;49.300;8.880;2022-08-19T01:31:35;22.47;;;20.17;;
65035;SDS011;51603;49.300;8.880;2022-08-19T01:34:02;23.13;;;20.90;;
65035;SDS011;51603;49.300;8.880;2022-08-19T01:36:32;24.07;;;21.83;;
65035;SDS011;51603;49.300;8.880;2022-08-19T01:39:09;22.03;;;20.13;;
65035;SDS011;51603;49.300;8.880;2022-08-19T01:41:38;23.73;;;21.33;;
65035;SDS011;51603;49.300;8.880;2022-08-19T01:44:05;22.17;;;20.27;;
65035;SDS011;51603;49.300;8.880;2022-08-19T01:46:32;20.77;;;18.83;;
65035;SDS011;51603;49.300;8.880;2022-08-19T01:48:58;22.33;;;20.20;;
65035;SDS011;51603;49.300;8.880;2022-08-19T01:51:24;22.50;;;20.37;;
65035;SDS011;51603;49.300;8.880;2022-08-19T01:53:50;22.20;;;20.20;;
65035;SDS011;51603;49.300;8.880;2022-08-19T01:56:16;21.53;;;19.60;;
65035;SDS011;51603;49.300;8.880;2022-08-19T01:58:45;21.57;;;19.70;;
65035;SDS011;51603;49.300;8.880;2022-08-19T02:01:15;23.03;;;20.73;;
65035;SDS011;51603;49.300;8.880;2022-08-19T02:03:41;22.47;;;20.40;;
65035;SDS011;51603;49.300;8.880;2022-08-19T02:06:07;24.90;;;22.53;;
65035;SDS011;51603;49.300;8.880;2022-08-19T02:08:34;20.43;;;18.53;;
65035;SDS011;51603;49.300;8.880;2022-08-19T02:11:01;24.93;;;22.53;;
65035;SDS011;51603;49.300;8.880;2022-08-19T02:13:27;23.77;;;21.33;;
65035;SDS011;51603;49.300;8.880;2022-08-19T02:15:53;22.80;;;20.80;;
65035;SDS011;51603;49.300;8.880;2022-08-19T02:18:19;21.63;;;19.80;;
65035;SDS011;51603;49.300;8.880;2022-08-19T02:20:44;22.73;;;20.53;;
65035;SDS011;51603;49.300;8.880;2022-08-19T02:23:12;22.20;;;20.20;;
65035;SDS011;51603;49.300;8.880;2022-08-19T02:25:38;22.63;;;20.63;;
65035;SDS011;51603;49.300;8.880;2022-08-19T02:28:05;22.33;;;20.30;;
65035;SDS011;51603;49.300;8.880;2022-08-19T02:30:31;21.77;;;19.47;;
65035;SDS011;51603;49.300;8.880;2022-08-19T02:32:56;22.87;;;20.67;;
65035;SDS011;51603;49.300;8.880;2022-08-19T02:35:23;22.47;;;20.33;;
65035;SDS011;51603;49.300;8.880;2022-08-19T02:37:49;22.53;;;20.53;;
65035;SDS011;51603;49.300;8.880;2022-08-19T02:40:33;22.73;;;20.60;;
65035;SDS011;51603;49.300;8.880;2022-08-19T02:43:03;22.87;;;20.87;;
65035;SDS011;51603;49.300;8.880;2022-08-19T02:45:35;24.60;;;22.30;;
65035;SDS011;51603;49.300;8.880;2022-08-19T02:48:02;22.10;;;20.10;;
65035;SDS011;51603;49.300;8.880;2022-08-19T02:50:29;23.43;;;21.30;;
65035;SDS011;51603;49.300;8.880;2022-08-19T02:52:55;23.30;;;21.20;;
65035;SDS011;51603;49.300;8.880;2022-08-19T02:55:21;24.00;;;21.60;;
65035;SDS011;51603;49.300;8.880;2022-08-19T02:57:47;23.13;;;21.00;;
65035;SDS011;51603;49.300;8.880;2022-08-19T03:00:13;22.93;;;20.73;;
65035;SDS011;51603;49.300;8.880;2022-08-19T03:02:39;20.73;;;18.83;;
65035;SDS011;51603;49.300;8.880;2022-08-19T03:05:05;21.80;;;19.80;;
65035;SDS011;51603;49.300;8.880;2022-08-19T03:07:32;22.63;;;20.63;;
65035;SDS011;51603;49.300;8.880;2022-08-19T03:09:58;23.47;;;21.27;;
65035;SDS011;51603;49.300;8.880;2022-08-19T03:12:24;23.03;;;20.90;;
65035;SDS011;51603;49.300;8.880;2022-08-19T03:14:49;23.03;;;20.77;;
65035;SDS011;51603;49.300;8.880;2022-08-19T03:17:16;24.50;;;22.20;;
65035;SDS011;51603;49.300;8.880;2022-08-19T03:19:41;23.63;;;21.53;;
65035;SDS011;51603;49.300;8.880;2022-08-19T03:22:08;23.60;;;21.30;;
65035;SDS011;51603;49.300;8.880;2022-08-19T03:24:34;24.43;;;22.13;;
65035;SDS011;51603;49.300;8.880;2022-08-19T03:27:00;25.07;;;22.67;;
65035;SDS011;51603;49.300;8.880;2022-08-19T03:29:27;24.57;;;22.20;;
65035;SDS011;51603;49.300;8.880;2022-08-19T03:31:56;24.03;;;21.87;;
65035;SDS011;51603;49.300;8.880;2022-08-19T03:34:26;22.73;;;20.73;;
65035;SDS011;51603;49.300;8.880;2022-08-19T03:36:56;22.13;;;20.03;;
65035;SDS011;51603;49.300;8.880;2022-08-19T03:39:24;22.67;;;20.67;;
65035;SDS011;51603;49.300;8.880;2022-08-19T03:41:50;23.00;;;20.90;;
65035;SDS011;51603;49.300;8.880;2022-08-19T03:44:21;23.10;;;21.10;;
65035;SDS011;51603;49.300;8.880;2022-08-19T03:46:52;21.63;;;19.70;;
65035;SDS011;51603;49.300;8.880;2022-08-19T03:49:20;22.50;;;20.40;;
65035;SDS011;51603;49.300;8.880;2022-08-19T03:51:49;23.70;;;21.40;;
65035;SDS011;51603;49.300;8.880;2022-08-19T03:54:16;24.57;;;22.13;;
65035;SDS011;51603;49.300;8.880;2022-08-19T03:56:44;22.30;;;20.30;;
65035;SDS011;51603;49.300;8.880;2022-08-19T03:59:13;24.30;;;22.00;;
65035;SDS011;51603;49.300;8.880;2022-08-19T04:01:40;24.40;;;22.27;;
65035;SDS011;51603;49.300;8.880;2022-08-19T04:04:07;22.90;;;20.67;;
65035;SDS011;51603;49.300;8.880;2022-08-19T04:06:33;24.27;;;21.97;;
65035;SDS011;51603;49.300;8.880;2022-08-19T04:09:01;23.23;;;20.93;;
65035;SDS011;51603;49.300;8.880;2022-08-19T04:11:30;22.67;;;20.50;;
65035;SDS011;51603;49.300;8.880;2022-08-19T04:13:59;22.83;;;20.73;;
65035;SDS011;51603;49.300;8.880;2022-08-19T04:16:25;22.53;;;20.53;;
65035;SDS011;51603;49.300;8.880;2022-08-19T04:18:55;23.57;;;21.37;;
65035;SDS011;51603;49.300;8.880;2022-08-19T04:21:23;23.97;;;21.47;;
65035;SDS011;51603;49.300;8.880;2022-08-19T04:23:50;23.83;;;21.63;;
65035;SDS011;51603;49.300;8.880;2022-08-19T04:26:17;23.50;;;21.30;;
65035;SDS011;51603;49.300;8.880;2022-08-19T04:28:45;22.57;;;20.57;;
65035;SDS011;51603;49.300;8.880;2022-08-19T04:31:14;22.00;;;20.00;;
65035;SDS011;51603;49.300;8.880;2022-08-19T04:33:41;23.73;;;21.43;;
65035;SDS011;51603;49.300;8.880;2022-08-19T04:36:07;23.87;;;21.57;;
65035;SDS011;51603;49.300;8.880;2022-08-19T04:38:40;23.13;;;21.03;;
65035;SDS011;51603;49.300;8.880;2022-08-19T04:41:06;21.93;;;20.03;;
65035;SDS011;51603;49.300;8.880;2022-08-19T04:43:50;22.37;;;20.10;;
65035;SDS011;51603;49.300;8.880;2022-08-19T04:46:15;21.70;;;19.80;;
65035;SDS011;51603;49.300;8.880;2022-08-19T04:48:42;24.03;;;21.70;;
65035;SDS011;51603;49.300;8.880;2022-08-19T04:51:09;22.50;;;20.40;;
65035;SDS011;51603;49.300;8.880;2022-08-19T04:53:37;21.10;;;19.10;;
65035;SDS011;51603;49.300;8.880;2022-08-19T04:56:05;20.57;;;18.77;;
65035;SDS011;51603;49.300;8.880;2022-08-19T04:58:36;23.13;;;21.03;;
65035;SDS011;51603;49.300;8.880;2022-08-19T05:01:04;24.30;;;22.00;;
65035;SDS011;51603;49.300;8.880;2022-08-19T05:03:29;22.40;;;20.30;;
65035;SDS011;51603;49.300;8.880;2022-08-19T05:05:58;21.27;;;19.27;;
65035;SDS011;51603;49.300;8.880;2022-08-19T05:08:32;20.27;;;18.37;;
65035;SDS011;51603;49.300;8.880;2022-08-19T05:10:59;22.63;;;20.53;;
65035;SDS011;51603;49.300;8.880;2022-08-19T05:13:24;21.60;;;19.60;;
65035;SDS011;51603;49.300;8.880;2022-08-19T05:15:55;20.00;;;18.10;;
65035;SDS011;51603;49.300;8.880;2022-08-19T05:18:22;23.40;;;21.20;;
65035;SDS011;51603;49.300;8.880;2022-08-19T05:21:13;23.00;;;20.80;;
65035;SDS011;51603;49.300;8.880;2022-08-19T05:23:59;20.00;;;17.97;;
65035;SDS011;51603;49.300;8.880;2022-08-19T05:26:25;20.17;;;18.37;;
65035;SDS011;51603;49.300;8.880;2022-08-19T05:28:52;23.70;;;20.50;;
65035;SDS011;51603;49.300;8.880;2022-08-19T05:31:18;19.67;;;17.87;;
65035;SDS011;51603;49.300;8.880;2022-08-19T05:33:44;20.87;;;18.97;;
65035;SDS011;51603;49.300;8.880;2022-08-19T05:36:09;21.37;;;19.30;;
65035;SDS011;51603;49.300;8.880;2022-08-19T05:38:35;23.17;;;21.07;;
65035;SDS011;51603;49.300;8.880;2022-08-19T05:41:05;22.80;;;20.67;;
65035;SDS011;51603;49.300;8.880;2022-08-19T05:43:33;22.00;;;19.90;;
65035;SDS011;51603;49.300;8.880;2022-08-19T05:45:58;21.27;;;19.07;;
65035;SDS011;51603;49.300;8.880;2022-08-19T05:48:24;23.27;;;21.17;;
65035;SDS011;51603;49.300;8.880;2022-08-19T05:50:51;23.30;;;21.00;;
65035;SDS011;51603;49.300;8.880;2022-08-19T05:53:17;22.10;;;20.10;;
65035;SDS011;51603;49.300;8.880;2022-08-19T05:55:43;21.50;;;19.40;;
65035;SDS011;51603;49.300;8.880;2022-08-19T05:58:08;23.43;;;21.13;;
65035;SDS011;51603;49.300;8.880;2022-08-19T06:00:35;22.10;;;20.10;;
65035;SDS011;51603;49.300;8.880;2022-08-19T06:03:01;23.17;;;20.97;;
65035;SDS011;51603;49.300;8.880;2022-08-19T06:05:28;22.10;;;19.73;;
65035;SDS011;51603;49.300;8.880;2022-08-19T06:07:54;21.17;;;19.07;;
65035;SDS011;51603;49.300;8.880;2022-08-19T06:10:21;20.87;;;18.80;;
65035;SDS011;51603;49.300;8.880;2022-08-19T06:12:47;21.10;;;18.97;;
65035;SDS011;51603;49.300;8.880;2022-08-19T06:15:13;22.30;;;20.20;;
65035;SDS011;51603;49.300;8.880;2022-08-19T06:17:39;21.13;;;19.17;;
65035;SDS011;51603;49.300;8.880;2022-08-19T06:20:07;22.17;;;19.80;;
65035;SDS011;51603;49.300;8.880;2022-08-19T06:22:42;19.33;;;17.63;;
65035;SDS011;51603;49.300;8.880;2022-08-19T06:25:09;20.40;;;18.57;;
65035;SDS011;51603;49.300;8.880;2022-08-19T06:27:36;22.77;;;20.30;;
65035;SDS011;51603;49.300;8.880;2022-08-19T06:30:03;20.77;;;18.87;;
65035;SDS011;51603;49.300;8.880;2022-08-19T06:32:29;21.83;;;19.83;;
65035;SDS011;51603;49.300;8.880;2022-08-19T06:34:56;19.10;;;17.23;;
65035;SDS011;51603;49.300;8.880;2022-08-19T06:37:21;20.20;;;18.23;;
65035;SDS011;51603;49.300;8.880;2022-08-19T06:39:47;21.57;;;19.57;;
65035;SDS011;51603;49.300;8.880;2022-08-19T06:42:13;22.70;;;20.50;;
65035;SDS011;51603;49.300;8.880;2022-08-19T06:44:43;20.93;;;18.93;;
65035;SDS011;51603;49.300;8.880;2022-08-19T06:47:11;20.20;;;18.23;;
65035;SDS011;51603;49.300;8.880;2022-08-19T06:49:38;20.50;;;18.60;;
65035;SDS011;51603;49.300;8.880;2022-08-19T06:52:04;22.83;;;18.93;;
65035;SDS011;51603;49.300;8.880;2022-08-19T06:54:31;21.70;;;19.70;;
65035;SDS011;51603;49.300;8.880;2022-08-19T06:57:00;20.40;;;18.40;;
65035;SDS011;51603;49.300;8.880;2022-08-19T06:59:29;19.40;;;17.60;;
65035;SDS011;51603;49.300;8.880;2022-08-19T07:01:57;20.53;;;18.50;;
65035;SDS011;51603;49.300;8.880;2022-08-19T07:04:26;19.17;;;17.40;;
65035;SDS011;51603;49.300;8.880;2022-08-19T07:07:09;20.50;;;18.57;;
65035;SDS011;51603;49.300;8.880;2022-08-19T07:09:37;18.63;;;16.93;;
65035;SDS011;51603;49.300;8.880;2022-08-19T07:12:07;19.93;;;18.00;;
65035;SDS011;51603;49.300;8.880;2022-08-19T07:14:34;19.47;;;17.63;;
65035;SDS011;51603;49.300;8.880;2022-08-19T07:17:02;19.27;;;17.43;;
65035;SDS011;51603;49.300;8.880;2022-08-19T07:19:29;19.00;;;17.30;;
65035;SDS011;51603;49.300;8.880;2022-08-19T07:21:56;17.70;;;15.90;;
65035;SDS011;51603;49.300;8.880;2022-08-19T07:24:23;19.47;;;17.50;;
65035;SDS011;51603;49.300;8.880;2022-08-19T07:26:51;16.00;;;14.57;;
65035;SDS011;51603;49.300;8.880;2022-08-19T07:29:19;16.10;;;14.60;;
65035;SDS011;51603;49.300;8.880;2022-08-19T07:31:47;17.57;;;15.57;;
65035;SDS011;51603;49.300;8.880;2022-08-19T07:34:14;17.07;;;15.47;;
65035;SDS011;51603;49.300;8.880;2022-08-19T07:36:41;16.57;;;15.07;;
65035;SDS011;51603;49.300;8.880;2022-08-19T07:39:30;17.37;;;15.63;;
65035;SDS011;51603;49.300;8.880;2022-08-19T07:41:56;20.00;;;15.53;;
65035;SDS011;51603;49.300;8.880;2022-08-19T07:44:23;16.27;;;14.77;;
65035;SDS011;51603;49.300;8.880;2022-08-19T07:46:52;16.47;;;14.97;;
65035;SDS011;51603;49.300;8.880;2022-08-19T07:49:20;16.60;;;15.10;;
65035;SDS011;51603;49.300;8.880;2022-08-19T07:51:48;15.50;;;14.20;;
65035;SDS011;51603;49.300;8.880;2022-08-19T07:54:19;16.37;;;14.67;;
65035;SDS011;51603;49.300;8.880;2022-08-19T07:56:45;16.00;;;14.50;;
65035;SDS011;51603;49.300;8.880;2022-08-19T07:59:11;17.27;;;15.47;;
65035;SDS011;51603;49.300;8.880;2022-08-19T08:01:37;16.43;;;14.90;;
65035;SDS011;51603;49.300;8.880;2022-08-19T08:04:04;15.17;;;13.77;;
65035;SDS011;51603;49.300;8.880;2022-08-19T08:06:50;16.73;;;15.30;;
65035;SDS011;51603;49.300;8.880;2022-08-19T08:09:37;15.03;;;13.70;;
65035;SDS011;51603;49.300;8.880;2022-08-19T08:12:11;14.40;;;13.10;;
65035;SDS011;51603;49.300;8.880;2022-08-19T08:14:41;16.90;;;15.23;;
65035;SDS011;51603;49.300;8.880;2022-08-19T08:17:11;14.73;;;13.53;;
65035;SDS011;51603;49.300;8.880;2022-08-19T08:19:37;13.47;;;12.30;;
65035;SDS011;51603;49.300;8.880;2022-08-19T08:22:05;16.57;;;15.07;;
65035;SDS011;51603;49.300;8.880;2022-08-19T08:24:32;13.90;;;12.63;;
65035;SDS011;51603;49.300;8.880;2022-08-19T08:26:59;18.10;;;14.80;;
65035;SDS011;51603;49.300;8.880;2022-08-19T08:29:27;16.93;;;15.50;;
65035;SDS011;51603;49.300;8.880;2022-08-19T08:31:54;13.97;;;12.77;;
65035;SDS011;51603;49.300;8.880;2022-08-19T08:34:20;15.57;;;14.00;;
65035;SDS011;51603;49.300;8.880;2022-08-19T08:36:46;15.47;;;14.07;;
65035;SDS011;51603;49.300;8.880;2022-08-19T08:39:13;13.43;;;12.23;;
65035;SDS011;51603;49.300;8.880;2022-08-19T08:44:39;14.27;;;12.97;;
65035;SDS011;51603;49.300;8.880;2022-08-19T08:47:31;13.13;;;11.93;;
65035;SDS011;51603;49.300;8.880;2022-08-19T08:50:20;14.07;;;12.77;;
65035;SDS011;51603;49.300;8.880;2022-08-19T08:52:54;14.47;;;13.07;;
65035;SDS011;51603;49.300;8.880;2022-08-19T08:55:23;14.57;;;13.27;;
65035;SDS011;51603;49.300;8.880;2022-08-19T08:57:53;14.17;;;13.03;;
65035;SDS011;51603;49.300;8.880;2022-08-19T09:00:26;14.07;;;12.77;;
65035;SDS011;51603;49.300;8.880;2022-08-19T09:02:55;18.37;;;13.83;;
65035;SDS011;51603;49.300;8.880;2022-08-19T09:05:22;14.00;;;12.60;;
65035;SDS011;51603;49.300;8.880;2022-08-19T09:08:07;13.00;;;11.70;;
65035;SDS011;51603;49.300;8.880;2022-08-19T09:10:39;12.73;;;11.53;;
65035;SDS011;51603;49.300;8.880;2022-08-19T09:15:41;10.50;;;9.57;;
65035;SDS011;51603;49.300;8.880;2022-08-19T09:18:13;11.00;;;9.97;;
65035;SDS011;51603;49.300;8.880;2022-08-19T09:20:40;11.03;;;9.90;;
65035;SDS011;51603;49.300;8.880;2022-08-19T09:23:05;11.13;;;10.27;;
65035;SDS011;51603;49.300;8.880;2022-08-19T09:25:31;11.27;;;10.17;;
65035;SDS011;51603;49.300;8.880;2022-08-19T09:27:59;11.43;;;10.43;;
65035;SDS011;51603;49.300;8.880;2022-08-19T09:30:28;11.43;;;10.30;;
65035;SDS011;51603;49.300;8.880;2022-08-19T09:32:59;10.10;;;9.20;;
65035;SDS011;51603;49.300;8.880;2022-08-19T09:35:26;10.37;;;9.00;;
65035;SDS011;51603;49.300;8.880;2022-08-19T09:37:54;9.03;;;8.30;;
65035;SDS011;51603;49.300;8.880;2022-08-19T09:40:22;8.63;;;8.00;;
65035;SDS011;51603;49.300;8.880;2022-08-19T09:42:48;9.20;;;8.23;;
65035;SDS011;51603;49.300;8.880;2022-08-19T09:45:14;8.73;;;7.93;;
65035;SDS011;51603;49.300;8.880;2022-08-19T09:47:41;9.70;;;8.73;;
65035;SDS011;51603;49.300;8.880;2022-08-19T09:50:07;8.80;;;7.93;;
65035;SDS011;51603;49.300;8.880;2022-08-19T09:52:34;9.50;;;8.10;;
65035;SDS011;51603;49.300;8.880;2022-08-19T09:55:01;7.40;;;6.80;;
65035;SDS011;51603;49.300;8.880;2022-08-19T09:57:31;6.93;;;6.33;;
65035;SDS011;51603;49.300;8.880;2022-08-19T09:59:57;7.23;;;6.43;;
65035;SDS011;51603;49.300;8.880;2022-08-19T10:02:22;6.53;;;5.90;;
65035;SDS011;51603;49.300;8.880;2022-08-19T10:04:48;7.37;;;6.10;;
65035;SDS011;51603;49.300;8.880;2022-08-19T10:07:32;6.60;;;5.93;;
65035;SDS011;51603;49.300;8.880;2022-08-19T10:09:58;6.87;;;6.27;;
65035;SDS011;51603;49.300;8.880;2022-08-19T10:12:23;6.93;;;6.23;;
65035;SDS011;51603;49.300;8.880;2022-08-19T10:14:49;5.97;;;5.47;;
65035;SDS011;51603;49.300;8.880;2022-08-19T10:17:16;6.60;;;6.00;;
65035;SDS011;51603;49.300;8.880;2022-08-19T10:19:42;5.83;;;5.33;;
65035;SDS011;51603;49.300;8.880;2022-08-19T10:22:08;5.90;;;5.30;;
65035;SDS011;51603;49.300;8.880;2022-08-19T10:24:36;6.30;;;5.80;;
65035;SDS011;51603;49.300;8.880;2022-08-19T10:27:01;6.30;;;5.80;;
65035;SDS011;51603;49.300;8.880;2022-08-19T10:29:30;7.13;;;6.00;;
65035;SDS011;51603;49.300;8.880;2022-08-19T10:31:57;6.07;;;5.53;;
65035;SDS011;51603;49.300;8.880;2022-08-19T10:34:25;5.63;;;5.23;;
65035;SDS011;51603;49.300;8.880;2022-08-19T10:36:51;7.40;;;6.70;;
65035;SDS011;51603;49.300;8.880;2022-08-19T10:39:17;6.03;;;5.50;;
65035;SDS011;51603;49.300;8.880;2022-08-19T10:41:43;9.00;;;6.80;;
65035;SDS011;51603;49.300;8.880;2022-08-19T10:44:09;6.50;;;5.93;;
65035;SDS011;51603;49.300;8.880;2022-08-19T10:46:37;6.53;;;5.93;;
65035;SDS011;51603;49.300;8.880;2022-08-19T10:49:07;8.83;;;6.60;;
65035;SDS011;51603;49.300;8.880;2022-08-19T10:51:34;8.93;;;7.63;;
65035;SDS011;51603;49.300;8.880;2022-08-19T10:54:19;8.80;;;7.90;;
65035;SDS011;51603;49.300;8.880;2022-08-19T10:56:45;8.33;;;7.60;;
65035;SDS011;51603;49.300;8.880;2022-08-19T10:59:17;8.90;;;8.03;;
65035;SDS011;51603;49.300;8.880;2022-08-19T11:01:48;7.93;;;7.23;;
65035;SDS011;51603;49.300;8.880;2022-08-19T11:04:15;7.20;;;6.50;;
65035;SDS011;51603;49.300;8.880;2022-08-19T11:06:43;7.20;;;6.67;;
65035;SDS011;51603;49.300;8.880;2022-08-19T11:09:11;6.47;;;5.90;;
65035;SDS011;51603;49.300;8.880;2022-08-19T11:11:37;6.17;;;5.67;;
65035;SDS011;51603;49.300;8.880;2022-08-19T11:14:13;6.77;;;6.17;;
65035;SDS011;51603;49.300;8.880;2022-08-19T11:16:41;5.80;;;5.30;;
65035;SDS011;51603;49.300;8.880;2022-08-19T11:19:08;6.30;;;5.80;;
65035;SDS011;51603;49.300;8.880;2022-08-19T11:21:37;6.23;;;5.83;;
65035;SDS011;51603;49.300;8.880;2022-08-19T11:24:08;5.10;;;4.70;;
65035;SDS011;51603;49.300;8.880;2022-08-19T11:26:40;5.93;;;5.43;;
65035;SDS011;51603;49.300;8.880;2022-08-19T11:29:07;5.40;;;5.00;;
65035;SDS011;51603;49.300;8.880;2022-08-19T11:31:36;5.53;;;5.13;;
65035;SDS011;51603;49.300;8.880;2022-08-19T11:34:05;6.43;;;5.60;;
65035;SDS011;51603;49.300;8.880;2022-08-19T11:36:32;5.97;;;5.40;;
65035;SDS011;51603;49.300;8.880;2022-08-19T11:38:59;5.70;;;5.20;;
65035;SDS011;51603;49.300;8.880;2022-08-19T11:41:25;5.20;;;4.80;;
65035;SDS011;51603;49.300;8.880;2022-08-19T11:43:51;5.50;;;4.80;;
65035;SDS011;51603;49.300;8.880;2022-08-19T11:46:21;5.60;;;5.10;;
65035;SDS011;51603;49.300;8.880;2022-08-19T11:48:48;6.07;;;5.43;;
65035;SDS011;51603;49.300;8.880;2022-08-19T11:51:16;4.97;;;4.53;;
65035;SDS011;51603;49.300;8.880;2022-08-19T11:53:44;5.50;;;5.00;;
65035;SDS011;51603;49.300;8.880;2022-08-19T11:56:10;4.90;;;4.50;;
65035;SDS011;51603;49.300;8.880;2022-08-19T11:58:37;5.90;;;5.30;;
65035;SDS011;51603;49.300;8.880;2022-08-19T12:01:11;4.90;;;4.47;;
65035;SDS011;51603;49.300;8.880;2022-08-19T12:03:38;5.17;;;4.70;;
65035;SDS011;51603;49.300;8.880;2022-08-19T12:06:05;5.13;;;4.70;;
65035;SDS011;51603;49.300;8.880;2022-08-19T12:08:35;4.93;;;4.53;;
65035;SDS011;51603;49.300;8.880;2022-08-19T12:11:01;5.23;;;4.73;;
65035;SDS011;51603;49.300;8.880;2022-08-19T12:13:28;5.43;;;5.03;;
65035;SDS011;51603;49.300;8.880;2022-08-19T12:15:57;5.00;;;4.60;;
65035;SDS011;51603;49.300;8.880;2022-08-19T12:18:23;4.73;;;4.33;;
65035;SDS011;51603;49.300;8.880;2022-08-19T12:20:52;5.40;;;5.00;;
65035;SDS011;51603;49.300;8.880;2022-08-19T12:23:19;5.27;;;4.80;;
65035;SDS011;51603;49.300;8.880;2022-08-19T12:25:46;5.70;;;5.20;;
65035;SDS011;51603;49.300;8.880;2022-08-19T12:28:16;5.63;;;5.23;;
65035;SDS011;51603;49.300;8.880;2022-08-19T12:30:46;6.07;;;5.57;;
65035;SDS011;51603;49.300;8.880;2022-08-19T12:33:12;7.67;;;7.07;;
65035;SDS011;51603;49.300;8.880;2022-08-19T12:35:42;6.50;;;6.00;;
65035;SDS011;51603;49.300;8.880;2022-08-19T12:38:11;6.40;;;5.80;;
65035;SDS011;51603;49.300;8.880;2022-08-19T12:40:38;6.20;;;5.60;;
65035;SDS011;51603;49.300;8.880;2022-08-19T12:43:05;9.10;;;5.70;;
65035;SDS011;51603;49.300;8.880;2022-08-19T12:45:34;6.00;;;5.60;;
65035;SDS011;51603;49.300;8.880;2022-08-19T12:47:59;14.53;;;5.37;;
65035;SDS011;51603;49.300;8.880;2022-08-19T12:50:25;5.57;;;5.17;;
65035;SDS011;51603;49.300;8.880;2022-08-19T12:52:51;6.00;;;5.60;;
65035;SDS011;51603;49.300;8.880;2022-08-19T12:55:16;7.47;;;6.10;;
65035;SDS011;51603;49.300;8.880;2022-08-19T12:57:43;5.93;;;5.40;;
65035;SDS011;51603;49.300;8.880;2022-08-19T13:00:11;6.67;;;6.17;;
65035;SDS011;51603;49.300;8.880;2022-08-19T13:02:40;6.20;;;5.80;;
65035;SDS011;51603;49.300;8.880;2022-08-19T13:05:09;6.90;;;6.40;;
65035;SDS011;51603;49.300;8.880;2022-08-19T13:07:37;6.23;;;5.73;;
65035;SDS011;51603;49.300;8.880;2022-08-19T13:10:05;9.57;;;6.10;;
65035;SDS011;51603;49.300;8.880;2022-08-19T13:12:32;6.63;;;5.97;;
65035;SDS011;51603;49.300;8.880;2022-08-19T13:14:58;7.53;;;7.00;;
65035;SDS011;51603;49.300;8.880;2022-08-19T13:17:23;6.23;;;5.83;;
65035;SDS011;51603;49.300;8.880;2022-08-19T13:19:49;7.10;;;6.50;;
65035;SDS011;51603;49.300;8.880;2022-08-19T13:22:15;7.00;;;6.40;;
65035;SDS011;51603;49.300;8.880;2022-08-19T13:24:41;7.47;;;6.77;;
65035;SDS011;51603;49.300;8.880;2022-08-19T13:27:07;7.60;;;7.00;;
65035;SDS011;51603;49.300;8.880;2022-08-19T13:29:33;8.70;;;6.60;;
65035;SDS011;51603;49.300;8.880;2022-08-19T13:32:17;7.37;;;6.87;;
65035;SDS011;51603;49.300;8.880;2022-08-19T13:35:02;6.53;;;6.13;;
65035;SDS011;51603;49.300;8.880;2022-08-19T13:37:28;6.37;;;5.90;;
65035;SDS011;51603;49.300;8.880;2022-08-19T13:40:27;6.03;;;5.63;;
65035;SDS011;51603;49.300;8.880;2022-08-19T13:42:53;6.70;;;6.20;;
65035;SDS011;51603;49.300;8.880;2022-08-19T13:45:21;8.53;;;6.40;;
65035;SDS011;51603;49.300;8.880;2022-08-19T13:47:49;7.00;;;6.40;;
65035;SDS011;51603;49.300;8.880;2022-08-19T13:50:17;6.80;;;6.30;;
65035;SDS011;51603;49.300;8.880;2022-08-19T13:52:45;6.30;;;5.90;;
65035;SDS011;51603;49.300;8.880;2022-08-19T13:55:12;7.60;;;7.00;;
65035;SDS011;51603;49.300;8.880;2022-08-19T13:57:38;6.23;;;5.73;;
65035;SDS011;51603;49.300;8.880;2022-08-19T14:00:05;6.40;;;5.80;;
65035;SDS011;51603;49.300;8.880;2022-08-19T14:02:35;5.80;;;5.40;;
65035;SDS011;51603;49.300;8.880;2022-08-19T14:05:02;6.70;;;6.07;;
65035;SDS011;51603;49.300;8.880;2022-08-19T14:07:28;6.33;;;5.93;;
65035;SDS011;51603;49.300;8.880;2022-08-19T14:09:54;7.07;;;6.57;;
65035;SDS011;51603;49.300;8.880;2022-08-19T14:12:20;6.27;;;5.77;;
65035;SDS011;51603;49.300;8.880;2022-08-19T14:14:45;6.00;;;5.60;;
65035;SDS011;51603;49.300;8.880;2022-08-19T14:17:11;5.57;;;5.17;;
65035;SDS011;51603;49.300;8.880;2022-08-19T14:19:36;5.83;;;5.33;;
65035;SDS011;51603;49.300;8.880;2022-08-19T14:22:02;5.63;;;5.20;;
65035;SDS011;51603;49.300;8.880;2022-08-19T14:24:28;5.80;;;5.40;;
65035;SDS011;51603;49.300;8.880;2022-08-19T14:26:53;5.90;;;5.40;;
65035;SDS011;51603;49.300;8.880;2022-08-19T14:29:19;5.67;;;5.17;;
65035;SDS011;51603;49.300;8.880;2022-08-19T14:31:44;5.63;;;5.23;;
65035;SDS011;51603;49.300;8.880;2022-08-19T14:34:10;5.67;;;5.27;;
65035;SDS011;51603;49.300;8.880;2022-08-19T14:36:37;5.90;;;5.40;;
65035;SDS011;51603;49.300;8.880;2022-08-19T14:39:03;4.80;;;4.40;;
65035;SDS011;51603;49.300;8.880;2022-08-19T14:41:29;4.47;;;4.17;;
65035;SDS011;51603;49.300;8.880;2022-08-19T14:43:55;5.93;;;5.53;;